createdAt,value
2023-01-25T04:00:34.176Z,9.90
2023-01-25T04:03:02.429Z,10.57
2023-01-25T04:05:30.789Z,11.75
2023-01-25T04:07:58.469Z,10.93
2023-01-25T04:10:34.325Z,11.98
2023-01-25T04:13:01.906Z,13.07
2023-01-25T04:15:29.456Z,10.45
2023-01-25T04:18:01.554Z,10.07
2023-01-25T04:20:29.806Z,9.95
2023-01-25T04:22:57.613Z,10.90
2023-01-25T04:25:31.610Z,9.60
2023-01-25T04:27:59.400Z,10.38
2023-01-25T04:30:27.287Z,10.38
2023-01-25T04:32:55.809Z,9.65
2023-01-25T04:35:38.811Z,12.10
2023-01-25T04:38:10.763Z,12.70
2023-01-25T04:40:42.702Z,11.13
2023-01-25T04:43:12.756Z,10.70
2023-01-25T04:45:40.665Z,12.15
2023-01-25T04:48:18.143Z,10.90
2023-01-25T04:50:51.037Z,12.25
2023-01-25T04:53:22.118Z,12.50
2023-01-25T04:56:02.812Z,11.30
2023-01-25T04:58:50.484Z,11.07
2023-01-25T05:01:27.061Z,12.25
2023-01-25T05:03:57.990Z,10.85
2023-01-25T05:06:41.367Z,11.27
2023-01-25T05:09:10.151Z,9.57
2023-01-25T05:11:37.974Z,10.10
2023-01-25T05:14:11.201Z,9.70
2023-01-25T05:16:38.932Z,11.13
2023-01-25T05:19:10.390Z,10.20
2023-01-25T05:21:59.801Z,9.80
2023-01-25T05:24:45.100Z,9.15
2023-01-25T05:27:17.280Z,8.82
2023-01-25T05:30:08.593Z,10.00
2023-01-25T05:33:01.282Z,9.50
2023-01-25T05:35:32.327Z,10.02
2023-01-25T05:38:00.321Z,9.23
2023-01-25T05:40:28.421Z,9.40
2023-01-25T05:43:02.073Z,8.05
2023-01-25T05:45:31.323Z,7.97
2023-01-25T05:47:59.355Z,7.78
2023-01-25T05:50:27.690Z,7.53
2023-01-25T05:53:01.938Z,7.45
2023-01-25T05:55:30.680Z,7.55
2023-01-25T05:58:03.295Z,8.23
2023-01-25T06:00:30.995Z,7.65
2023-01-25T06:03:01.325Z,8.25
2023-01-25T06:05:38.237Z,7.53
2023-01-25T06:08:50.117Z,9.43
2023-01-25T06:11:24.442Z,7.25
2023-01-25T06:13:58.261Z,9.43
2023-01-25T06:16:37.685Z,7.50
2023-01-25T06:19:38.260Z,8.30
2023-01-25T06:22:29.109Z,9.00
2023-01-25T06:53:20.156Z,9.13
2023-01-25T06:56:10.022Z,7.85
2023-01-25T07:00:24.055Z,9.07
2023-01-25T07:04:16.081Z,7.57
2023-01-25T07:07:17.353Z,9.48
2023-01-25T07:09:45.099Z,9.75
2023-01-25T07:12:19.711Z,10.23
2023-01-25T07:19:00.607Z,7.68
2023-01-25T07:22:53.665Z,9.88
2023-01-25T07:25:21.305Z,9.60
2023-01-25T07:27:55.462Z,10.27
2023-01-25T07:30:45.854Z,9.05
2023-01-25T07:33:16.641Z,8.13
2023-01-25T07:35:52.944Z,8.50
2023-01-25T07:38:26.982Z,8.57
2023-01-25T07:41:28.433Z,7.50
2023-01-25T07:44:20.349Z,6.70
2023-01-25T07:47:28.599Z,7.75
2023-01-25T07:54:40.360Z,7.43
2023-01-25T07:57:48.676Z,9.27
2023-01-25T08:00:43.091Z,8.07
2023-01-25T08:03:49.031Z,8.13
2023-01-25T08:06:47.186Z,8.95
2023-01-25T08:09:34.355Z,8.68
2023-01-25T08:12:39.848Z,8.93
2023-01-25T08:16:16.932Z,11.43
2023-01-25T08:19:27.781Z,10.20
2023-01-25T08:22:14.464Z,7.45
2023-01-25T08:25:03.601Z,9.02
2023-01-25T08:27:42.417Z,10.98
2023-01-25T08:30:22.882Z,7.25
2023-01-25T08:36:43.351Z,7.15
2023-01-25T08:39:39.034Z,9.13
2023-01-25T08:43:13.271Z,9.85
2023-01-25T09:03:10.992Z,10.90
2023-01-25T09:06:39.441Z,10.27
2023-01-25T09:10:55.557Z,10.27
2023-01-25T09:14:46.649Z,12.77
2023-01-25T11:25:28.084Z,6.95
2023-01-25T11:31:52.981Z,9.43
2023-01-25T11:35:36.965Z,12.30
2023-01-25T11:38:17.008Z,8.23
2023-01-25T11:40:44.542Z,8.85
2023-01-25T11:43:20.346Z,9.68
2023-01-25T11:46:03.172Z,10.48
2023-01-25T11:49:22.138Z,8.05
2023-01-25T11:52:06.123Z,7.32
2023-01-25T11:54:53.870Z,7.45
2023-01-25T11:58:26.075Z,7.22
2023-01-25T12:01:23.794Z,7.53
2023-01-25T12:04:06.160Z,8.07
2023-01-25T12:10:58.979Z,7.85
2023-01-25T12:13:34.992Z,6.95
2023-01-25T12:16:54.393Z,8.65
2023-01-25T12:20:15.348Z,8.18
2023-01-25T12:23:11.318Z,7.60
2023-01-25T12:26:12.913Z,7.72
2023-01-25T12:30:02.714Z,7.93
2023-01-25T12:36:20.672Z,7.32
2023-01-25T12:39:12.358Z,7.25
2023-01-25T12:41:58.935Z,8.30
2023-01-25T12:45:03.897Z,7.70
2023-01-25T12:47:54.774Z,6.50
2023-01-25T12:50:34.682Z,7.95
2023-01-25T12:53:56.390Z,7.47
2023-01-25T12:57:55.426Z,7.43
2023-01-25T13:04:54.176Z,8.02
2023-01-25T13:07:34.562Z,7.57
2023-01-25T13:11:00.856Z,7.65
2023-01-25T13:15:17.524Z,8.88
2023-01-25T13:17:45.379Z,8.85
2023-01-25T13:29:05.134Z,7.85
2023-01-25T13:41:20.813Z,9.55
2023-01-25T13:43:54.745Z,8.48
2023-01-25T13:53:23.576Z,8.05
2023-01-25T13:55:56.906Z,8.27
2023-01-25T13:58:26.491Z,8.65
2023-01-25T14:01:02.693Z,8.48
2023-01-25T14:03:51.156Z,7.93
2023-01-25T14:06:33.338Z,7.03
2023-01-25T14:09:22.788Z,7.35
2023-01-25T14:11:56.617Z,7.75
2023-01-25T14:14:34.424Z,7.65
2023-01-25T14:17:19.203Z,7.50
2023-01-25T14:19:50.065Z,6.43
2023-01-25T14:22:29.183Z,9.32
2023-01-25T14:25:14.766Z,6.68
2023-01-25T14:27:54.309Z,7.40
2023-01-25T14:31:01.686Z,11.02
2023-01-25T14:37:21.571Z,11.52
2023-01-25T14:39:51.906Z,10.93
2023-01-25T14:42:20.151Z,8.52
2023-01-25T14:45:10.788Z,9.00
2023-01-25T14:47:51.047Z,9.77
2023-01-25T14:50:45.730Z,9.68
2023-01-25T14:53:23.035Z,11.25
2023-01-25T14:56:27.176Z,9.75
2023-01-25T14:59:01.775Z,10.50
2023-01-25T15:05:11.061Z,9.43
2023-01-25T15:11:39.002Z,9.18
2023-01-25T15:14:45.798Z,9.30
2023-01-25T15:17:39.443Z,13.07
2023-01-25T15:20:30.193Z,8.00
2023-01-25T15:23:14.283Z,9.55
2023-01-25T15:25:53.538Z,9.93
2023-01-25T15:28:27.756Z,10.25
2023-01-25T15:30:57.838Z,9.18
2023-01-25T15:33:28.960Z,9.38
2023-01-25T15:35:56.889Z,12.50
2023-01-25T15:38:25.204Z,9.75
2023-01-25T15:41:00.500Z,10.75
2023-01-25T15:44:05.700Z,10.73
2023-01-25T15:46:37.269Z,12.13
2023-01-25T15:49:15.346Z,15.50
2023-01-25T15:51:48.387Z,9.38
2023-01-25T15:54:29.428Z,9.80
2023-01-25T15:57:03.516Z,11.60
2023-01-25T15:59:33.377Z,11.73
2023-01-25T16:05:18.386Z,11.93
2023-01-25T16:08:19.422Z,11.48
2023-01-25T16:10:47.426Z,13.77
2023-01-25T16:13:14.938Z,12.68
2023-01-25T16:16:02.890Z,10.98
2023-01-25T16:18:30.501Z,11.38
2023-01-25T16:20:58.104Z,10.52
2023-01-25T16:23:26.156Z,11.60
2023-01-25T16:25:53.839Z,11.13
2023-01-25T16:28:34.919Z,10.65
2023-01-25T16:31:02.627Z,11.18
2023-01-25T16:33:42.697Z,13.05
2023-01-25T16:36:53.366Z,12.23
2023-01-25T16:39:24.624Z,13.77
2023-01-25T16:41:52.693Z,12.93
2023-01-25T16:44:42.255Z,13.43
2023-01-25T16:47:23.892Z,14.48
2023-01-25T16:49:54.132Z,13.48
2023-01-25T16:52:26.249Z,12.55
2023-01-25T16:54:58.034Z,13.93
2023-01-25T16:57:25.807Z,15.23
2023-01-25T16:59:53.997Z,19.27
2023-01-25T17:02:21.708Z,16.88
2023-01-25T17:04:49.319Z,15.38
2023-01-25T17:07:17.020Z,15.70
2023-01-25T17:09:50.344Z,17.73
2023-01-25T17:12:45.567Z,16.70
2023-01-25T17:15:23.685Z,13.70
2023-01-25T17:17:58.886Z,16.17
2023-01-25T17:20:26.503Z,14.68
2023-01-25T17:22:54.198Z,11.60
2023-01-25T17:25:26.470Z,15.73
2023-01-25T17:27:54.057Z,11.77
2023-01-25T17:30:44.941Z,13.60
2023-01-25T17:33:20.196Z,12.52
2023-01-25T17:51:15.998Z,16.52
2023-01-25T17:53:43.732Z,12.38
2023-01-25T17:57:06.122Z,13.18
2023-01-25T17:59:45.343Z,15.20
2023-01-25T18:02:15.292Z,16.20
2023-01-25T18:08:42.851Z,13.80
2023-01-25T18:11:20.788Z,14.57
2023-01-25T18:17:13.772Z,15.95
2023-01-25T18:20:53.245Z,17.58
2023-01-25T18:23:54.708Z,16.73
2023-01-25T18:27:13.022Z,13.85
2023-01-25T18:29:47.075Z,15.07
2023-01-25T18:35:51.896Z,15.35
2023-01-25T18:38:19.721Z,14.38
2023-01-25T18:41:44.681Z,16.05
2023-01-25T18:44:13.168Z,14.63
2023-01-25T18:47:33.404Z,13.95
2023-01-25T18:50:01.551Z,14.35
2023-01-25T18:53:16.679Z,15.20
2023-01-25T18:56:35.986Z,16.20
2023-01-25T18:59:06.511Z,18.42
2023-01-25T19:01:36.834Z,18.08
2023-01-25T19:04:31.870Z,18.00
2023-01-25T19:07:03.891Z,18.45
2023-01-25T19:09:32.158Z,17.25
2023-01-25T19:12:00.139Z,17.88
2023-01-25T19:14:34.185Z,21.13
2023-01-25T19:17:01.853Z,20.10
2023-01-25T19:19:32.305Z,21.50
2023-01-25T19:22:08.430Z,27.13
2023-01-25T19:24:36.177Z,21.95
2023-01-25T19:27:04.121Z,19.30
2023-01-25T19:29:31.803Z,18.95
2023-01-25T19:31:59.372Z,17.73
2023-01-25T19:34:27.018Z,17.58
2023-01-25T19:37:42.544Z,17.88
2023-01-25T19:40:10.961Z,17.63
2023-01-25T19:42:38.595Z,19.70
2023-01-25T19:45:06.690Z,17.88
2023-01-25T19:47:34.483Z,17.80
2023-01-25T19:50:02.901Z,17.35
2023-01-25T19:52:30.806Z,17.63
2023-01-25T19:54:58.493Z,15.05
2023-01-25T20:00:38.162Z,16.08
2023-01-25T20:03:15.953Z,19.88
2023-01-25T20:07:32.156Z,17.42
2023-01-25T20:10:10.105Z,16.23
2023-01-25T20:12:38.060Z,17.95
2023-01-25T20:15:06.466Z,15.98
2023-01-25T20:18:36.537Z,14.88
2023-01-25T20:21:15.556Z,16.33
2023-01-25T20:47:37.848Z,12.82
2023-01-25T21:53:35.218Z,12.65
2023-01-25T23:29:37.732Z,8.75
2023-01-25T23:33:17.696Z,11.63
